sensor_id;sensor_type;location;lat;lon;timestamp;P1;durP1;ratioP1;P2;durP2;ratioP2
42294;SDS011;27947;47.556;18.718;2022-11-09T00:02:00;24.98;;;10.75;;
42294;SDS011;27947;47.556;18.718;2022-11-09T00:04:25;33.70;;;10.35;;
42294;SDS011;27947;47.556;18.718;2022-11-09T00:06:51;29.10;;;9.65;;
42294;SDS011;27947;47.556;18.718;2022-11-09T00:09:16;22.85;;;9.32;;
42294;SDS011;27947;47.556;18.718;2022-11-09T00:11:41;28.38;;;10.93;;
42294;SDS011;27947;47.556;18.718;2022-11-09T00:14:11;38.03;;;10.82;;
42294;SDS011;27947;47.556;18.718;2022-11-09T00:16:37;30.65;;;9.77;;
42294;SDS011;27947;47.556;18.718;2022-11-09T00:19:02;27.70;;;10.18;;
42294;SDS011;27947;47.556;18.718;2022-11-09T00:21:27;31.63;;;11.10;;
42294;SDS011;27947;47.556;18.718;2022-11-09T00:23:53;29.58;;;11.60;;
42294;SDS011;27947;47.556;18.718;2022-11-09T00:26:19;32.72;;;11.00;;
42294;SDS011;27947;47.556;18.718;2022-11-09T00:28:44;30.65;;;10.85;;
42294;SDS011;27947;47.556;18.718;2022-11-09T00:31:11;27.42;;;10.38;;
42294;SDS011;27947;47.556;18.718;2022-11-09T00:33:37;32.20;;;10.20;;
42294;SDS011;27947;47.556;18.718;2022-11-09T00:36:04;28.48;;;10.23;;
42294;SDS011;27947;47.556;18.718;2022-11-09T00:38:32;26.65;;;8.75;;
42294;SDS011;27947;47.556;18.718;2022-11-09T00:41:01;26.77;;;10.30;;
42294;SDS011;27947;47.556;18.718;2022-11-09T00:43:30;19.77;;;8.63;;
42294;SDS011;27947;47.556;18.718;2022-11-09T00:45:55;24.75;;;9.30;;
42294;SDS011;27947;47.556;18.718;2022-11-09T00:48:21;25.60;;;9.35;;
42294;SDS011;27947;47.556;18.718;2022-11-09T00:50:49;28.83;;;9.32;;
42294;SDS011;27947;47.556;18.718;2022-11-09T00:53:15;31.00;;;11.10;;
42294;SDS011;27947;47.556;18.718;2022-11-09T00:55:40;29.50;;;10.43;;
42294;SDS011;27947;47.556;18.718;2022-11-09T00:58:05;27.33;;;9.57;;
42294;SDS011;27947;47.556;18.718;2022-11-09T01:00:31;22.88;;;9.50;;
42294;SDS011;27947;47.556;18.718;2022-11-09T01:02:56;24.50;;;9.95;;
42294;SDS011;27947;47.556;18.718;2022-11-09T01:05:23;23.88;;;9.20;;
42294;SDS011;27947;47.556;18.718;2022-11-09T01:07:49;28.48;;;9.32;;
42294;SDS011;27947;47.556;18.718;2022-11-09T01:10:14;24.73;;;8.15;;
42294;SDS011;27947;47.556;18.718;2022-11-09T01:12:39;26.60;;;9.45;;
42294;SDS011;27947;47.556;18.718;2022-11-09T01:15:06;24.92;;;9.40;;
42294;SDS011;27947;47.556;18.718;2022-11-09T01:17:32;27.27;;;9.68;;
42294;SDS011;27947;47.556;18.718;2022-11-09T01:19:58;29.00;;;10.80;;
42294;SDS011;27947;47.556;18.718;2022-11-09T01:22:23;25.50;;;9.07;;
42294;SDS011;27947;47.556;18.718;2022-11-09T01:24:48;22.48;;;9.68;;
42294;SDS011;27947;47.556;18.718;2022-11-09T01:27:14;26.50;;;9.20;;
42294;SDS011;27947;47.556;18.718;2022-11-09T01:29:40;28.10;;;10.60;;
42294;SDS011;27947;47.556;18.718;2022-11-09T01:32:05;33.75;;;9.98;;
42294;SDS011;27947;47.556;18.718;2022-11-09T01:34:30;22.17;;;9.05;;
42294;SDS011;27947;47.556;18.718;2022-11-09T01:36:55;26.05;;;9.57;;
42294;SDS011;27947;47.556;18.718;2022-11-09T01:39:21;31.17;;;11.50;;
42294;SDS011;27947;47.556;18.718;2022-11-09T01:41:46;25.50;;;8.77;;
42294;SDS011;27947;47.556;18.718;2022-11-09T01:44:13;32.20;;;9.43;;
42294;SDS011;27947;47.556;18.718;2022-11-09T01:49:21;26.02;;;8.90;;
42294;SDS011;27947;47.556;18.718;2022-11-09T01:51:50;27.20;;;8.63;;
42294;SDS011;27947;47.556;18.718;2022-11-09T01:54:18;29.15;;;8.90;;
42294;SDS011;27947;47.556;18.718;2022-11-09T01:56:45;26.52;;;9.85;;
42294;SDS011;27947;47.556;18.718;2022-11-09T01:59:14;27.55;;;8.40;;
42294;SDS011;27947;47.556;18.718;2022-11-09T02:01:41;25.67;;;8.68;;
42294;SDS011;27947;47.556;18.718;2022-11-09T02:04:09;23.63;;;8.80;;
42294;SDS011;27947;47.556;18.718;2022-11-09T02:06:36;19.15;;;8.80;;
42294;SDS011;27947;47.556;18.718;2022-11-09T02:09:11;31.08;;;9.07;;
42294;SDS011;27947;47.556;18.718;2022-11-09T02:11:39;23.60;;;8.88;;
42294;SDS011;27947;47.556;18.718;2022-11-09T02:14:05;27.58;;;10.55;;
42294;SDS011;27947;47.556;18.718;2022-11-09T02:16:30;30.52;;;9.52;;
42294;SDS011;27947;47.556;18.718;2022-11-09T02:18:57;21.35;;;9.00;;
42294;SDS011;27947;47.556;18.718;2022-11-09T02:21:24;25.40;;;8.73;;
42294;SDS011;27947;47.556;18.718;2022-11-09T02:23:50;22.63;;;9.90;;
42294;SDS011;27947;47.556;18.718;2022-11-09T02:26:24;29.88;;;9.48;;
42294;SDS011;27947;47.556;18.718;2022-11-09T02:28:51;24.73;;;9.05;;
42294;SDS011;27947;47.556;18.718;2022-11-09T02:31:18;30.63;;;10.80;;
42294;SDS011;27947;47.556;18.718;2022-11-09T02:33:52;22.23;;;6.88;;
42294;SDS011;27947;47.556;18.718;2022-11-09T02:36:18;23.00;;;7.78;;
42294;SDS011;27947;47.556;18.718;2022-11-09T02:38:44;23.95;;;8.80;;
42294;SDS011;27947;47.556;18.718;2022-11-09T02:41:09;22.83;;;8.52;;
42294;SDS011;27947;47.556;18.718;2022-11-09T02:43:35;37.05;;;10.65;;
42294;SDS011;27947;47.556;18.718;2022-11-09T02:46:01;19.48;;;7.88;;
42294;SDS011;27947;47.556;18.718;2022-11-09T02:48:28;28.98;;;8.27;;
42294;SDS011;27947;47.556;18.718;2022-11-09T02:50:55;19.17;;;8.00;;
42294;SDS011;27947;47.556;18.718;2022-11-09T02:53:21;22.17;;;8.35;;
42294;SDS011;27947;47.556;18.718;2022-11-09T02:55:46;24.88;;;7.65;;
42294;SDS011;27947;47.556;18.718;2022-11-09T02:58:12;21.63;;;7.45;;
42294;SDS011;27947;47.556;18.718;2022-11-09T03:00:38;29.80;;;10.10;;
42294;SDS011;27947;47.556;18.718;2022-11-09T03:03:03;21.08;;;8.63;;
42294;SDS011;27947;47.556;18.718;2022-11-09T03:05:29;19.92;;;8.10;;
42294;SDS011;27947;47.556;18.718;2022-11-09T03:07:54;22.80;;;7.70;;
42294;SDS011;27947;47.556;18.718;2022-11-09T03:10:21;24.92;;;8.02;;
42294;SDS011;27947;47.556;18.718;2022-11-09T03:12:47;20.98;;;6.90;;
42294;SDS011;27947;47.556;18.718;2022-11-09T03:15:13;25.60;;;6.70;;
42294;SDS011;27947;47.556;18.718;2022-11-09T03:17:42;20.00;;;7.20;;
42294;SDS011;27947;47.556;18.718;2022-11-09T03:20:08;22.10;;;8.30;;
42294;SDS011;27947;47.556;18.718;2022-11-09T03:22:35;23.83;;;8.93;;
42294;SDS011;27947;47.556;18.718;2022-11-09T03:25:00;26.40;;;8.82;;
42294;SDS011;27947;47.556;18.718;2022-11-09T03:27:26;21.52;;;7.03;;
42294;SDS011;27947;47.556;18.718;2022-11-09T03:29:51;23.90;;;7.32;;
42294;SDS011;27947;47.556;18.718;2022-11-09T03:32:16;31.05;;;8.55;;
42294;SDS011;27947;47.556;18.718;2022-11-09T03:34:41;22.10;;;7.28;;
42294;SDS011;27947;47.556;18.718;2022-11-09T03:37:07;19.50;;;6.57;;
42294;SDS011;27947;47.556;18.718;2022-11-09T03:39:33;25.77;;;8.48;;
42294;SDS011;27947;47.556;18.718;2022-11-09T03:41:58;23.08;;;8.18;;
42294;SDS011;27947;47.556;18.718;2022-11-09T03:44:24;20.30;;;8.35;;
42294;SDS011;27947;47.556;18.718;2022-11-09T03:46:49;20.73;;;7.40;;
42294;SDS011;27947;47.556;18.718;2022-11-09T03:49:15;22.67;;;8.68;;
42294;SDS011;27947;47.556;18.718;2022-11-09T03:51:40;16.58;;;7.28;;
42294;SDS011;27947;47.556;18.718;2022-11-09T03:54:05;21.73;;;8.48;;
42294;SDS011;27947;47.556;18.718;2022-11-09T03:56:30;22.23;;;6.85;;
42294;SDS011;27947;47.556;18.718;2022-11-09T03:58:56;25.58;;;8.20;;
42294;SDS011;27947;47.556;18.718;2022-11-09T04:01:21;26.05;;;7.78;;
42294;SDS011;27947;47.556;18.718;2022-11-09T04:03:46;25.48;;;8.40;;
42294;SDS011;27947;47.556;18.718;2022-11-09T04:06:11;25.35;;;7.78;;
42294;SDS011;27947;47.556;18.718;2022-11-09T04:08:37;29.40;;;7.88;;
42294;SDS011;27947;47.556;18.718;2022-11-09T04:11:02;19.30;;;8.35;;
42294;SDS011;27947;47.556;18.718;2022-11-09T04:13:27;25.55;;;7.93;;
42294;SDS011;27947;47.556;18.718;2022-11-09T04:15:52;31.77;;;7.68;;
42294;SDS011;27947;47.556;18.718;2022-11-09T04:18:18;24.13;;;7.88;;
42294;SDS011;27947;47.556;18.718;2022-11-09T04:20:43;22.52;;;7.22;;
42294;SDS011;27947;47.556;18.718;2022-11-09T04:23:10;23.85;;;7.70;;
42294;SDS011;27947;47.556;18.718;2022-11-09T04:25:36;28.23;;;8.40;;
42294;SDS011;27947;47.556;18.718;2022-11-09T04:28:02;19.60;;;7.30;;
42294;SDS011;27947;47.556;18.718;2022-11-09T04:30:29;24.77;;;8.07;;
42294;SDS011;27947;47.556;18.718;2022-11-09T04:32:55;30.08;;;7.40;;
42294;SDS011;27947;47.556;18.718;2022-11-09T04:35:20;19.80;;;7.63;;
42294;SDS011;27947;47.556;18.718;2022-11-09T04:38:00;27.58;;;7.63;;
42294;SDS011;27947;47.556;18.718;2022-11-09T04:40:26;24.95;;;7.60;;
42294;SDS011;27947;47.556;18.718;2022-11-09T04:42:52;19.45;;;7.72;;
42294;SDS011;27947;47.556;18.718;2022-11-09T04:45:18;18.98;;;7.50;;
42294;SDS011;27947;47.556;18.718;2022-11-09T04:47:43;24.48;;;7.05;;
42294;SDS011;27947;47.556;18.718;2022-11-09T04:50:08;30.05;;;8.73;;
42294;SDS011;27947;47.556;18.718;2022-11-09T04:52:34;19.52;;;6.32;;
42294;SDS011;27947;47.556;18.718;2022-11-09T04:54:59;21.52;;;8.63;;
42294;SDS011;27947;47.556;18.718;2022-11-09T04:57:24;21.50;;;7.38;;
42294;SDS011;27947;47.556;18.718;2022-11-09T04:59:50;17.42;;;5.93;;
42294;SDS011;27947;47.556;18.718;2022-11-09T05:02:15;20.67;;;7.40;;
42294;SDS011;27947;47.556;18.718;2022-11-09T05:04:40;27.77;;;9.18;;
42294;SDS011;27947;47.556;18.718;2022-11-09T05:07:05;19.20;;;6.43;;
42294;SDS011;27947;47.556;18.718;2022-11-09T05:09:31;21.75;;;7.28;;
42294;SDS011;27947;47.556;18.718;2022-11-09T05:11:56;18.30;;;7.00;;
42294;SDS011;27947;47.556;18.718;2022-11-09T05:14:21;22.02;;;7.47;;
42294;SDS011;27947;47.556;18.718;2022-11-09T05:16:46;21.45;;;7.60;;
42294;SDS011;27947;47.556;18.718;2022-11-09T05:19:12;23.42;;;7.68;;
42294;SDS011;27947;47.556;18.718;2022-11-09T05:21:37;32.15;;;7.82;;
42294;SDS011;27947;47.556;18.718;2022-11-09T05:24:02;25.70;;;8.93;;
42294;SDS011;27947;47.556;18.718;2022-11-09T05:26:29;20.10;;;6.43;;
42294;SDS011;27947;47.556;18.718;2022-11-09T05:28:54;20.80;;;6.25;;
42294;SDS011;27947;47.556;18.718;2022-11-09T05:31:19;21.75;;;8.90;;
42294;SDS011;27947;47.556;18.718;2022-11-09T05:33:47;18.63;;;8.05;;
42294;SDS011;27947;47.556;18.718;2022-11-09T05:36:12;23.70;;;8.38;;
42294;SDS011;27947;47.556;18.718;2022-11-09T05:38:37;24.95;;;7.85;;
42294;SDS011;27947;47.556;18.718;2022-11-09T05:41:03;28.42;;;7.75;;
42294;SDS011;27947;47.556;18.718;2022-11-09T05:43:28;18.98;;;7.30;;
42294;SDS011;27947;47.556;18.718;2022-11-09T05:45:53;19.20;;;6.53;;
42294;SDS011;27947;47.556;18.718;2022-11-09T05:48:19;22.08;;;8.07;;
42294;SDS011;27947;47.556;18.718;2022-11-09T05:50:44;24.40;;;7.32;;
42294;SDS011;27947;47.556;18.718;2022-11-09T05:53:15;23.27;;;8.48;;
42294;SDS011;27947;47.556;18.718;2022-11-09T05:55:40;18.85;;;7.53;;
42294;SDS011;27947;47.556;18.718;2022-11-09T05:58:06;25.70;;;8.35;;
42294;SDS011;27947;47.556;18.718;2022-11-09T06:00:31;28.25;;;8.38;;
42294;SDS011;27947;47.556;18.718;2022-11-09T06:03:03;19.02;;;6.75;;
42294;SDS011;27947;47.556;18.718;2022-11-09T06:07:54;24.63;;;6.63;;
42294;SDS011;27947;47.556;18.718;2022-11-09T06:10:19;20.02;;;6.78;;
42294;SDS011;27947;47.556;18.718;2022-11-09T06:12:49;15.52;;;6.65;;
42294;SDS011;27947;47.556;18.718;2022-11-09T06:15:14;17.25;;;6.80;;
42294;SDS011;27947;47.556;18.718;2022-11-09T06:17:39;21.30;;;6.80;;
42294;SDS011;27947;47.556;18.718;2022-11-09T06:20:04;27.15;;;7.75;;
42294;SDS011;27947;47.556;18.718;2022-11-09T06:22:30;22.73;;;7.38;;
42294;SDS011;27947;47.556;18.718;2022-11-09T06:24:55;22.85;;;7.10;;
42294;SDS011;27947;47.556;18.718;2022-11-09T06:27:20;17.95;;;6.63;;
42294;SDS011;27947;47.556;18.718;2022-11-09T06:29:46;23.98;;;7.63;;
42294;SDS011;27947;47.556;18.718;2022-11-09T06:32:11;24.88;;;7.22;;
42294;SDS011;27947;47.556;18.718;2022-11-09T06:34:36;18.17;;;6.55;;
42294;SDS011;27947;47.556;18.718;2022-11-09T06:37:01;18.95;;;7.15;;
42294;SDS011;27947;47.556;18.718;2022-11-09T06:39:27;12.30;;;5.47;;
42294;SDS011;27947;47.556;18.718;2022-11-09T06:41:52;21.45;;;6.63;;
42294;SDS011;27947;47.556;18.718;2022-11-09T06:44:17;16.60;;;6.43;;
42294;SDS011;27947;47.556;18.718;2022-11-09T06:46:42;15.00;;;6.88;;
42294;SDS011;27947;47.556;18.718;2022-11-09T06:49:08;27.15;;;7.85;;
42294;SDS011;27947;47.556;18.718;2022-11-09T06:51:33;25.85;;;7.57;;
42294;SDS011;27947;47.556;18.718;2022-11-09T06:53:58;23.88;;;7.40;;
42294;SDS011;27947;47.556;18.718;2022-11-09T06:56:24;22.83;;;6.68;;
42294;SDS011;27947;47.556;18.718;2022-11-09T06:58:49;21.73;;;7.45;;
42294;SDS011;27947;47.556;18.718;2022-11-09T07:01:15;28.88;;;7.28;;
42294;SDS011;27947;47.556;18.718;2022-11-09T07:03:41;15.85;;;5.43;;
42294;SDS011;27947;47.556;18.718;2022-11-09T07:06:07;21.48;;;7.70;;
42294;SDS011;27947;47.556;18.718;2022-11-09T07:08:33;23.17;;;6.40;;
42294;SDS011;27947;47.556;18.718;2022-11-09T07:11:05;21.20;;;7.43;;
42294;SDS011;27947;47.556;18.718;2022-11-09T07:15:56;12.33;;;4.23;;
42294;SDS011;27947;47.556;18.718;2022-11-09T07:18:21;17.20;;;6.70;;
42294;SDS011;27947;47.556;18.718;2022-11-09T07:20:47;23.27;;;6.70;;
42294;SDS011;27947;47.556;18.718;2022-11-09T07:23:12;18.52;;;7.15;;
42294;SDS011;27947;47.556;18.718;2022-11-09T07:25:37;22.15;;;8.20;;
42294;SDS011;27947;47.556;18.718;2022-11-09T07:28:06;18.70;;;5.82;;
42294;SDS011;27947;47.556;18.718;2022-11-09T07:30:32;14.07;;;5.40;;
42294;SDS011;27947;47.556;18.718;2022-11-09T07:32:57;19.70;;;6.70;;
42294;SDS011;27947;47.556;18.718;2022-11-09T07:35:24;22.02;;;6.15;;
42294;SDS011;27947;47.556;18.718;2022-11-09T07:37:49;21.88;;;7.10;;
42294;SDS011;27947;47.556;18.718;2022-11-09T07:40:15;22.27;;;7.22;;
42294;SDS011;27947;47.556;18.718;2022-11-09T07:42:40;13.02;;;6.28;;
42294;SDS011;27947;47.556;18.718;2022-11-09T07:45:05;20.98;;;6.20;;
42294;SDS011;27947;47.556;18.718;2022-11-09T07:47:31;14.52;;;5.93;;
42294;SDS011;27947;47.556;18.718;2022-11-09T07:49:56;14.98;;;6.43;;
42294;SDS011;27947;47.556;18.718;2022-11-09T07:52:21;17.08;;;6.35;;
42294;SDS011;27947;47.556;18.718;2022-11-09T07:54:47;20.40;;;7.20;;
42294;SDS011;27947;47.556;18.718;2022-11-09T07:57:12;19.80;;;6.38;;
42294;SDS011;27947;47.556;18.718;2022-11-09T07:59:37;18.95;;;6.30;;
42294;SDS011;27947;47.556;18.718;2022-11-09T08:02:03;18.33;;;6.50;;
42294;SDS011;27947;47.556;18.718;2022-11-09T08:04:29;14.85;;;6.57;;
42294;SDS011;27947;47.556;18.718;2022-11-09T08:06:54;14.93;;;5.32;;
42294;SDS011;27947;47.556;18.718;2022-11-09T08:09:20;11.88;;;5.55;;
42294;SDS011;27947;47.556;18.718;2022-11-09T08:11:45;14.95;;;5.32;;
42294;SDS011;27947;47.556;18.718;2022-11-09T08:14:10;18.02;;;6.35;;
42294;SDS011;27947;47.556;18.718;2022-11-09T08:16:36;14.95;;;5.75;;
42294;SDS011;27947;47.556;18.718;2022-11-09T08:19:01;18.55;;;6.22;;
42294;SDS011;27947;47.556;18.718;2022-11-09T08:21:26;16.88;;;4.78;;
42294;SDS011;27947;47.556;18.718;2022-11-09T08:23:52;17.35;;;5.10;;
42294;SDS011;27947;47.556;18.718;2022-11-09T08:26:17;12.02;;;5.15;;
42294;SDS011;27947;47.556;18.718;2022-11-09T08:28:42;15.95;;;5.13;;
42294;SDS011;27947;47.556;18.718;2022-11-09T08:31:08;12.35;;;5.20;;
42294;SDS011;27947;47.556;18.718;2022-11-09T08:33:35;15.90;;;7.05;;
42294;SDS011;27947;47.556;18.718;2022-11-09T08:36:00;14.85;;;5.93;;
42294;SDS011;27947;47.556;18.718;2022-11-09T08:38:26;14.13;;;6.13;;
42294;SDS011;27947;47.556;18.718;2022-11-09T08:40:55;14.90;;;5.55;;
42294;SDS011;27947;47.556;18.718;2022-11-09T08:43:20;17.08;;;5.60;;
42294;SDS011;27947;47.556;18.718;2022-11-09T08:45:46;15.30;;;5.95;;
42294;SDS011;27947;47.556;18.718;2022-11-09T08:48:12;19.75;;;6.95;;
42294;SDS011;27947;47.556;18.718;2022-11-09T08:50:37;15.85;;;5.47;;
42294;SDS011;27947;47.556;18.718;2022-11-09T08:53:03;14.40;;;5.35;;
42294;SDS011;27947;47.556;18.718;2022-11-09T08:55:28;14.48;;;5.03;;
42294;SDS011;27947;47.556;18.718;2022-11-09T08:57:55;20.77;;;6.28;;
42294;SDS011;27947;47.556;18.718;2022-11-09T09:00:20;18.50;;;6.15;;
42294;SDS011;27947;47.556;18.718;2022-11-09T09:02:45;18.85;;;6.72;;
42294;SDS011;27947;47.556;18.718;2022-11-09T09:05:12;17.92;;;6.65;;
42294;SDS011;27947;47.556;18.718;2022-11-09T09:07:37;17.20;;;5.97;;
42294;SDS011;27947;47.556;18.718;2022-11-09T09:10:03;15.25;;;6.07;;
42294;SDS011;27947;47.556;18.718;2022-11-09T09:12:28;17.02;;;5.88;;
42294;SDS011;27947;47.556;18.718;2022-11-09T09:14:53;17.98;;;6.05;;
42294;SDS011;27947;47.556;18.718;2022-11-09T09:17:19;16.23;;;6.32;;
42294;SDS011;27947;47.556;18.718;2022-11-09T09:19:44;18.50;;;7.57;;
42294;SDS011;27947;47.556;18.718;2022-11-09T09:22:10;16.05;;;6.18;;
42294;SDS011;27947;47.556;18.718;2022-11-09T09:24:35;13.65;;;5.85;;
42294;SDS011;27947;47.556;18.718;2022-11-09T09:27:00;18.60;;;6.20;;
42294;SDS011;27947;47.556;18.718;2022-11-09T09:29:26;15.27;;;7.65;;
42294;SDS011;27947;47.556;18.718;2022-11-09T09:31:52;18.67;;;7.35;;
42294;SDS011;27947;47.556;18.718;2022-11-09T09:34:17;22.70;;;8.32;;
42294;SDS011;27947;47.556;18.718;2022-11-09T09:36:42;13.90;;;5.80;;
42294;SDS011;27947;47.556;18.718;2022-11-09T09:39:08;14.18;;;6.78;;
42294;SDS011;27947;47.556;18.718;2022-11-09T09:43:59;15.32;;;6.60;;
42294;SDS011;27947;47.556;18.718;2022-11-09T09:46:31;20.90;;;7.22;;
42294;SDS011;27947;47.556;18.718;2022-11-09T09:49:04;16.88;;;6.47;;
42294;SDS011;27947;47.556;18.718;2022-11-09T09:51:33;21.67;;;7.35;;
42294;SDS011;27947;47.556;18.718;2022-11-09T09:54:10;21.42;;;8.05;;
42294;SDS011;27947;47.556;18.718;2022-11-09T09:56:40;18.23;;;7.07;;
42294;SDS011;27947;47.556;18.718;2022-11-09T09:59:17;17.27;;;6.57;;
42294;SDS011;27947;47.556;18.718;2022-11-09T10:01:44;17.98;;;7.93;;
42294;SDS011;27947;47.556;18.718;2022-11-09T10:04:20;19.15;;;8.02;;
42294;SDS011;27947;47.556;18.718;2022-11-09T10:12:04;15.73;;;7.20;;
42294;SDS011;27947;47.556;18.718;2022-11-09T10:22:21;19.25;;;7.90;;
42294;SDS011;27947;47.556;18.718;2022-11-09T10:24:52;18.13;;;7.30;;
42294;SDS011;27947;47.556;18.718;2022-11-09T10:29:45;18.35;;;7.50;;
42294;SDS011;27947;47.556;18.718;2022-11-09T10:34:38;20.92;;;7.57;;
42294;SDS011;27947;47.556;18.718;2022-11-09T10:37:11;19.80;;;8.25;;
42294;SDS011;27947;47.556;18.718;2022-11-09T10:39:48;17.70;;;6.50;;
42294;SDS011;27947;47.556;18.718;2022-11-09T10:42:34;18.45;;;6.82;;
42294;SDS011;27947;47.556;18.718;2022-11-09T10:45:31;21.05;;;7.35;;
42294;SDS011;27947;47.556;18.718;2022-11-09T10:48:24;22.50;;;8.75;;
42294;SDS011;27947;47.556;18.718;2022-11-09T10:51:28;21.02;;;8.43;;
42294;SDS011;27947;47.556;18.718;2022-11-09T10:54:14;22.35;;;8.48;;
42294;SDS011;27947;47.556;18.718;2022-11-09T11:00:15;22.23;;;8.50;;
42294;SDS011;27947;47.556;18.718;2022-11-09T11:03:08;19.52;;;7.68;;
42294;SDS011;27947;47.556;18.718;2022-11-09T11:06:35;19.08;;;8.00;;
42294;SDS011;27947;47.556;18.718;2022-11-09T11:11:43;23.40;;;9.63;;
42294;SDS011;27947;47.556;18.718;2022-11-09T11:14:31;14.90;;;7.40;;
42294;SDS011;27947;47.556;18.718;2022-11-09T11:20:32;19.55;;;7.57;;
42294;SDS011;27947;47.556;18.718;2022-11-09T11:29:05;25.40;;;8.48;;
42294;SDS011;27947;47.556;18.718;2022-11-09T11:31:51;17.15;;;8.00;;
42294;SDS011;27947;47.556;18.718;2022-11-09T11:34:35;22.52;;;8.63;;
42294;SDS011;27947;47.556;18.718;2022-11-09T11:40:34;23.52;;;8.93;;
42294;SDS011;27947;47.556;18.718;2022-11-09T11:46:18;24.45;;;8.38;;
42294;SDS011;27947;47.556;18.718;2022-11-09T12:00:58;27.38;;;11.20;;
42294;SDS011;27947;47.556;18.718;2022-11-09T12:04:00;32.13;;;9.10;;
42294;SDS011;27947;47.556;18.718;2022-11-09T12:09:48;27.83;;;9.88;;
42294;SDS011;27947;47.556;18.718;2022-11-09T12:12:46;25.50;;;9.20;;
42294;SDS011;27947;47.556;18.718;2022-11-09T12:15:57;21.85;;;9.15;;
42294;SDS011;27947;47.556;18.718;2022-11-09T12:24:30;27.25;;;9.07;;
42294;SDS011;27947;47.556;18.718;2022-11-09T12:30:24;29.85;;;10.32;;
42294;SDS011;27947;47.556;18.718;2022-11-09T12:33:12;30.48;;;9.93;;
42294;SDS011;27947;47.556;18.718;2022-11-09T12:36:05;27.55;;;10.02;;
42294;SDS011;27947;47.556;18.718;2022-11-09T12:41:34;18.83;;;8.10;;
42294;SDS011;27947;47.556;18.718;2022-11-09T12:44:30;34.95;;;10.65;;
42294;SDS011;27947;47.556;18.718;2022-11-09T12:47:18;32.70;;;11.30;;
42294;SDS011;27947;47.556;18.718;2022-11-09T12:50:03;28.10;;;10.23;;
42294;SDS011;27947;47.556;18.718;2022-11-09T12:52:48;26.63;;;9.07;;
42294;SDS011;27947;47.556;18.718;2022-11-09T12:58:25;28.58;;;10.75;;
42294;SDS011;27947;47.556;18.718;2022-11-09T13:01:11;26.27;;;10.25;;
42294;SDS011;27947;47.556;18.718;2022-11-09T13:03:56;28.27;;;11.20;;
42294;SDS011;27947;47.556;18.718;2022-11-09T13:06:41;33.90;;;11.35;;
42294;SDS011;27947;47.556;18.718;2022-11-09T13:09:24;36.53;;;10.68;;
42294;SDS011;27947;47.556;18.718;2022-11-09T13:17:59;33.50;;;10.02;;
42294;SDS011;27947;47.556;18.718;2022-11-09T13:20:44;24.25;;;10.30;;
42294;SDS011;27947;47.556;18.718;2022-11-09T13:23:30;32.88;;;12.13;;
42294;SDS011;27947;47.556;18.718;2022-11-09T13:26:21;35.50;;;11.75;;
42294;SDS011;27947;47.556;18.718;2022-11-09T13:32:00;32.75;;;11.63;;
42294;SDS011;27947;47.556;18.718;2022-11-09T13:34:51;25.92;;;10.05;;
42294;SDS011;27947;47.556;18.718;2022-11-09T13:43:18;29.38;;;9.90;;
42294;SDS011;27947;47.556;18.718;2022-11-09T13:46:03;28.33;;;9.98;;
42294;SDS011;27947;47.556;18.718;2022-11-09T13:48:47;31.65;;;9.50;;
42294;SDS011;27947;47.556;18.718;2022-11-09T13:57:12;26.33;;;10.93;;
42294;SDS011;27947;47.556;18.718;2022-11-09T13:59:56;33.72;;;11.20;;
42294;SDS011;27947;47.556;18.718;2022-11-09T14:02:40;27.65;;;10.27;;
42294;SDS011;27947;47.556;18.718;2022-11-09T14:05:34;25.13;;;11.05;;
42294;SDS011;27947;47.556;18.718;2022-11-09T14:08:41;30.98;;;13.07;;
42294;SDS011;27947;47.556;18.718;2022-11-09T14:22:49;32.00;;;11.63;;
42294;SDS011;27947;47.556;18.718;2022-11-09T14:25:34;29.75;;;10.40;;
42294;SDS011;27947;47.556;18.718;2022-11-09T14:28:20;29.38;;;11.02;;
42294;SDS011;27947;47.556;18.718;2022-11-09T14:31:04;28.58;;;10.02;;
42294;SDS011;27947;47.556;18.718;2022-11-09T14:34:02;26.80;;;10.18;;
42294;SDS011;27947;47.556;18.718;2022-11-09T14:36:46;30.90;;;11.52;;
42294;SDS011;27947;47.556;18.718;2022-11-09T14:39:31;32.22;;;10.45;;
42294;SDS011;27947;47.556;18.718;2022-11-09T14:42:18;30.38;;;9.70;;
42294;SDS011;27947;47.556;18.718;2022-11-09T14:45:02;29.30;;;9.77;;
42294;SDS011;27947;47.556;18.718;2022-11-09T14:47:49;26.50;;;9.65;;
42294;SDS011;27947;47.556;18.718;2022-11-09T14:50:35;30.25;;;9.63;;
42294;SDS011;27947;47.556;18.718;2022-11-09T14:53:21;32.13;;;11.07;;
42294;SDS011;27947;47.556;18.718;2022-11-09T14:56:09;34.95;;;10.98;;
42294;SDS011;27947;47.556;18.718;2022-11-09T14:58:53;31.38;;;11.43;;
42294;SDS011;27947;47.556;18.718;2022-11-09T15:01:39;34.95;;;11.38;;
42294;SDS011;27947;47.556;18.718;2022-11-09T15:04:23;31.23;;;11.82;;
42294;SDS011;27947;47.556;18.718;2022-11-09T15:07:14;27.45;;;10.20;;
42294;SDS011;27947;47.556;18.718;2022-11-09T15:10:01;24.05;;;10.35;;
42294;SDS011;27947;47.556;18.718;2022-11-09T15:12:46;27.30;;;11.18;;
42294;SDS011;27947;47.556;18.718;2022-11-09T15:15:31;29.10;;;10.52;;
42294;SDS011;27947;47.556;18.718;2022-11-09T15:18:17;32.20;;;11.20;;
42294;SDS011;27947;47.556;18.718;2022-11-09T15:24:02;28.92;;;10.90;;
42294;SDS011;27947;47.556;18.718;2022-11-09T15:26:47;29.83;;;10.27;;
42294;SDS011;27947;47.556;18.718;2022-11-09T15:29:36;35.20;;;10.98;;
42294;SDS011;27947;47.556;18.718;2022-11-09T15:32:20;25.38;;;10.00;;
42294;SDS011;27947;47.556;18.718;2022-11-09T15:35:12;30.40;;;10.30;;
42294;SDS011;27947;47.556;18.718;2022-11-09T15:37:57;24.45;;;10.00;;
42294;SDS011;27947;47.556;18.718;2022-11-09T15:40:41;26.83;;;11.00;;
42294;SDS011;27947;47.556;18.718;2022-11-09T15:43:25;28.20;;;10.57;;
42294;SDS011;27947;47.556;18.718;2022-11-09T15:46:13;26.35;;;11.77;;
42294;SDS011;27947;47.556;18.718;2022-11-09T15:48:58;35.58;;;11.13;;
42294;SDS011;27947;47.556;18.718;2022-11-09T15:51:49;33.80;;;11.57;;
42294;SDS011;27947;47.556;18.718;2022-11-09T15:54:33;36.67;;;10.10;;
42294;SDS011;27947;47.556;18.718;2022-11-09T15:57:17;26.67;;;10.05;;
42294;SDS011;27947;47.556;18.718;2022-11-09T16:00:02;26.48;;;9.82;;
42294;SDS011;27947;47.556;18.718;2022-11-09T16:02:46;29.20;;;11.85;;
42294;SDS011;27947;47.556;18.718;2022-11-09T16:05:30;26.40;;;10.18;;
42294;SDS011;27947;47.556;18.718;2022-11-09T16:08:14;27.67;;;11.25;;
42294;SDS011;27947;47.556;18.718;2022-11-09T16:10:57;26.92;;;9.93;;
42294;SDS011;27947;47.556;18.718;2022-11-09T16:13:45;31.50;;;10.95;;
42294;SDS011;27947;47.556;18.718;2022-11-09T16:16:29;31.42;;;11.40;;
42294;SDS011;27947;47.556;18.718;2022-11-09T16:19:13;23.25;;;9.90;;
42294;SDS011;27947;47.556;18.718;2022-11-09T16:21:57;25.15;;;9.80;;
42294;SDS011;27947;47.556;18.718;2022-11-09T16:24:41;24.80;;;10.57;;
42294;SDS011;27947;47.556;18.718;2022-11-09T16:27:27;30.50;;;11.68;;
42294;SDS011;27947;47.556;18.718;2022-11-09T16:30:11;28.60;;;10.57;;
42294;SDS011;27947;47.556;18.718;2022-11-09T16:32:55;28.23;;;11.48;;
42294;SDS011;27947;47.556;18.718;2022-11-09T16:35:39;27.17;;;11.25;;
42294;SDS011;27947;47.556;18.718;2022-11-09T16:38:23;29.30;;;11.13;;
42294;SDS011;27947;47.556;18.718;2022-11-09T16:41:07;32.95;;;11.80;;